createdAt,value
2023-01-25T00:01:57.231Z,67.90
2023-01-25T00:04:26.457Z,68.10
2023-01-25T00:06:57.017Z,68.00
2023-01-25T00:09:27.053Z,68.10
2023-01-25T00:11:58.107Z,68.00
2023-01-25T00:14:27.003Z,68.00
2023-01-25T00:16:56.139Z,68.00
2023-01-25T00:19:25.237Z,68.10
2023-01-25T00:21:54.317Z,68.00
2023-01-25T00:24:25.778Z,68.00
2023-01-25T00:26:54.962Z,68.10
2023-01-25T00:29:24.116Z,68.10
2023-01-25T00:32:03.171Z,68.10
2023-01-25T00:34:47.147Z,68.00
2023-01-25T00:37:31.749Z,68.00
2023-01-25T00:40:02.124Z,68.20
2023-01-25T00:42:31.121Z,68.10
2023-01-25T00:45:00.201Z,68.00
2023-01-25T00:47:29.224Z,67.90
2023-01-25T00:49:58.304Z,68.10
2023-01-25T00:52:28.560Z,68.00
2023-01-25T00:54:58.099Z,67.90
2023-01-25T00:57:28.391Z,67.90
2023-01-25T00:59:57.261Z,67.90
2023-01-25T01:02:26.385Z,67.60
2023-01-25T01:04:56.806Z,67.60
2023-01-25T01:07:25.898Z,67.60
2023-01-25T01:09:55.282Z,67.40
2023-01-25T01:12:28.254Z,67.30
2023-01-25T01:14:57.625Z,67.30
2023-01-25T01:17:26.525Z,67.40
2023-01-25T01:19:55.667Z,67.40
2023-01-25T01:22:25.072Z,67.50
2023-01-25T01:24:53.983Z,67.60
2023-01-25T01:27:22.944Z,67.80
2023-01-25T01:29:53.675Z,67.80
2023-01-25T01:32:22.938Z,67.60
2023-01-25T01:34:53.563Z,67.60
2023-01-25T01:37:22.443Z,67.70
2023-01-25T01:39:53.251Z,67.90
2023-01-25T01:42:22.538Z,67.70
2023-01-25T01:44:55.938Z,67.70
2023-01-25T01:47:32.866Z,67.70
2023-01-25T01:50:17.978Z,67.60
2023-01-25T01:52:47.487Z,67.60
2023-01-25T01:55:20.779Z,67.60
2023-01-25T01:57:53.900Z,67.50
2023-01-25T02:00:26.746Z,67.50
2023-01-25T02:02:56.911Z,67.60
2023-01-25T02:05:31.325Z,67.80
2023-01-25T02:08:01.498Z,67.60
2023-01-25T02:10:31.699Z,67.60
2023-01-25T02:13:01.273Z,67.60
2023-01-25T02:15:38.422Z,67.60
2023-01-25T02:18:07.565Z,67.60
2023-01-25T02:20:40.284Z,67.70
2023-01-25T02:23:17.512Z,67.60
2023-01-25T02:25:47.955Z,67.50
2023-01-25T02:28:22.376Z,67.50
2023-01-25T02:30:51.741Z,67.30
2023-01-25T02:33:23.300Z,67.40
2023-01-25T02:35:59.905Z,67.40
2023-01-25T02:38:32.712Z,67.40
2023-01-25T02:41:07.554Z,67.40
2023-01-25T02:43:36.921Z,67.50
2023-01-25T02:46:14.531Z,67.50
2023-01-25T02:48:46.771Z,67.40
2023-01-25T02:51:15.931Z,67.40
2023-01-25T02:53:44.873Z,67.30
2023-01-25T02:56:15.024Z,67.40
2023-01-25T02:58:44.425Z,67.50
2023-01-25T03:01:14.643Z,67.40
2023-01-25T03:03:44.479Z,67.50
2023-01-25T03:06:13.677Z,68.20
2023-01-25T03:08:44.600Z,67.20
2023-01-25T03:11:14.918Z,67.10
2023-01-25T03:13:44.883Z,66.90
2023-01-25T03:16:15.061Z,66.90
2023-01-25T03:18:46.871Z,66.90
2023-01-25T03:21:18.119Z,66.90
2023-01-25T03:23:48.469Z,66.80
2023-01-25T03:26:25.232Z,66.70
2023-01-25T03:29:14.556Z,66.60
2023-01-25T03:31:45.918Z,66.50
2023-01-25T03:34:16.734Z,66.60
2023-01-25T03:36:45.787Z,66.80
2023-01-25T03:39:15.292Z,66.80
2023-01-25T03:41:47.484Z,66.90
2023-01-25T03:44:17.224Z,66.90
2023-01-25T03:46:47.861Z,66.90
2023-01-25T03:49:18.445Z,67.10
2023-01-25T03:51:47.899Z,67.20
2023-01-25T03:54:17.952Z,67.10
2023-01-25T03:56:48.562Z,67.10
2023-01-25T03:59:23.695Z,67.00
2023-01-25T04:01:53.016Z,66.80
2023-01-25T04:04:23.332Z,66.60
2023-01-25T04:06:52.829Z,66.50
2023-01-25T04:09:23.098Z,66.50
2023-01-25T04:11:56.267Z,66.80
2023-01-25T04:14:42.531Z,67.10
2023-01-25T04:17:14.036Z,67.60
2023-01-25T04:20:00.022Z,67.60
2023-01-25T04:22:36.273Z,67.50
2023-01-25T04:25:08.238Z,67.20
2023-01-25T04:27:41.527Z,67.20
2023-01-25T04:30:15.009Z,67.20
2023-01-25T04:32:46.496Z,67.20
2023-01-25T04:35:26.441Z,67.30
2023-01-25T04:37:56.579Z,67.30
2023-01-25T04:40:29.058Z,67.40
2023-01-25T04:42:59.533Z,67.40
2023-01-25T04:45:29.133Z,67.50
2023-01-25T04:48:00.604Z,67.90
2023-01-25T04:50:30.209Z,67.60
2023-01-25T04:53:00.327Z,67.50
2023-01-25T04:55:33.555Z,67.30
2023-01-25T04:58:05.835Z,67.30
2023-01-25T05:00:35.558Z,67.50
2023-01-25T05:03:05.567Z,67.50
2023-01-25T05:05:35.088Z,67.40
2023-01-25T05:08:08.706Z,67.40
2023-01-25T05:10:40.021Z,67.30
2023-01-25T05:13:30.329Z,67.00
2023-01-25T05:16:12.164Z,66.80
2023-01-25T05:18:48.490Z,66.80
2023-01-25T05:21:55.972Z,66.80
2023-01-25T05:24:25.300Z,66.90
2023-01-25T05:27:04.013Z,67.30
2023-01-25T05:29:52.687Z,67.10
2023-01-25T05:32:24.982Z,66.90
2023-01-25T05:34:54.531Z,67.00
2023-01-25T05:37:25.167Z,66.80
2023-01-25T05:40:01.161Z,67.00
2023-01-25T05:42:31.168Z,67.20
2023-01-25T05:45:03.189Z,67.20
2023-01-25T05:47:33.221Z,67.20
2023-01-25T05:50:02.588Z,67.30
2023-01-25T05:52:50.341Z,67.30
2023-01-25T05:55:19.722Z,67.30
2023-01-25T05:57:50.394Z,67.40
2023-01-25T06:00:22.545Z,67.30
2023-01-25T06:02:51.702Z,67.20
2023-01-25T06:05:25.043Z,67.20
2023-01-25T06:07:54.350Z,67.10
2023-01-25T06:10:26.058Z,66.90
2023-01-25T06:12:59.234Z,67.10
2023-01-25T06:15:30.582Z,66.90
2023-01-25T06:18:19.984Z,66.70
2023-01-25T06:21:12.414Z,66.90
2023-01-25T06:23:44.128Z,66.80
2023-01-25T06:26:16.712Z,66.70
2023-01-25T06:28:45.819Z,66.70
2023-01-25T06:31:17.759Z,66.70
2023-01-25T06:33:50.429Z,66.90
2023-01-25T06:36:23.350Z,67.00
2023-01-25T06:38:53.633Z,67.10
2023-01-25T06:41:23.207Z,66.90
2023-01-25T06:43:52.789Z,66.70
2023-01-25T06:46:23.532Z,66.80
2023-01-25T06:48:52.593Z,66.80
2023-01-25T06:51:21.622Z,66.80
2023-01-25T06:53:50.970Z,67.00
2023-01-25T06:56:22.688Z,67.10
2023-01-25T06:58:52.210Z,67.00
2023-01-25T07:01:27.238Z,66.90
2023-01-25T07:03:58.287Z,67.00
2023-01-25T07:06:33.283Z,67.10
2023-01-25T07:09:06.355Z,67.00
2023-01-25T07:11:35.957Z,66.90
2023-01-25T07:14:06.163Z,67.00
2023-01-25T07:16:38.629Z,67.00
2023-01-25T07:19:13.221Z,67.20
2023-01-25T07:21:42.721Z,67.10
2023-01-25T07:24:16.111Z,66.90
2023-01-25T07:26:45.790Z,67.00
2023-01-25T07:29:19.096Z,67.20
2023-01-25T07:31:50.708Z,67.00
2023-01-25T07:34:20.534Z,66.90
2023-01-25T07:36:49.809Z,66.80
2023-01-25T07:39:20.244Z,66.80
2023-01-25T07:41:52.223Z,66.50
2023-01-25T07:44:27.702Z,66.50
2023-01-25T07:47:10.892Z,66.50
2023-01-25T07:49:39.858Z,66.60
2023-01-25T07:52:08.988Z,66.60
2023-01-25T07:54:38.328Z,66.50
2023-01-25T07:57:07.591Z,66.30
2023-01-25T07:59:36.559Z,66.40
2023-01-25T08:02:05.839Z,66.50
2023-01-25T08:04:36.060Z,66.50
2023-01-25T08:07:05.114Z,66.80
2023-01-25T08:09:34.359Z,66.80
2023-01-25T08:12:03.486Z,66.80
2023-01-25T08:14:32.219Z,67.10
2023-01-25T08:17:01.874Z,67.10
2023-01-25T08:19:33.964Z,67.20
2023-01-25T08:22:04.513Z,67.30
2023-01-25T08:24:33.687Z,67.20
2023-01-25T08:27:02.983Z,67.10
2023-01-25T08:29:32.108Z,67.10
2023-01-25T08:32:04.281Z,67.00
2023-01-25T08:34:33.823Z,67.10
2023-01-25T08:37:04.381Z,67.10
2023-01-25T08:39:33.601Z,67.10
2023-01-25T08:42:02.866Z,67.10
2023-01-25T08:44:31.872Z,67.20
2023-01-25T08:47:00.969Z,67.10
2023-01-25T08:49:31.202Z,67.10
2023-01-25T08:52:00.456Z,67.00
2023-01-25T08:54:31.007Z,66.90
2023-01-25T08:57:00.163Z,66.80
2023-01-25T08:59:29.424Z,66.90
2023-01-25T09:01:58.370Z,66.90
2023-01-25T09:04:28.514Z,66.80
2023-01-25T09:06:57.680Z,66.80
2023-01-25T09:09:26.854Z,66.60
2023-01-25T09:11:57.595Z,66.50
2023-01-25T09:14:26.697Z,66.70
2023-01-25T09:16:56.023Z,66.80
2023-01-25T09:19:25.258Z,66.90
2023-01-25T09:21:54.174Z,66.70
2023-01-25T09:24:23.355Z,66.70
2023-01-25T09:26:59.365Z,66.80
2023-01-25T09:29:30.353Z,66.80
2023-01-25T09:31:59.576Z,67.00
2023-01-25T09:34:34.600Z,67.10
2023-01-25T09:37:04.147Z,67.10
2023-01-25T09:39:33.250Z,66.90
2023-01-25T09:42:24.200Z,67.20
2023-01-25T09:45:12.361Z,67.10
2023-01-25T09:47:49.854Z,67.10
2023-01-25T09:50:32.991Z,67.20
2023-01-25T09:53:22.469Z,66.50
2023-01-25T09:55:54.124Z,66.30
2023-01-25T09:58:29.305Z,66.60
2023-01-25T10:01:38.968Z,66.60
2023-01-25T10:04:15.814Z,66.30
2023-01-25T10:07:02.313Z,66.40
2023-01-25T10:09:42.997Z,67.10
2023-01-25T10:12:17.361Z,67.10
2023-01-25T10:14:46.414Z,67.00
2023-01-25T10:17:28.264Z,66.90
2023-01-25T10:20:10.333Z,66.90
2023-01-25T10:22:46.841Z,66.80
2023-01-25T10:25:30.585Z,66.70
2023-01-25T10:28:39.814Z,66.70
2023-01-25T10:31:17.032Z,67.00
2023-01-25T10:33:49.298Z,67.00
2023-01-25T10:36:23.664Z,66.70
2023-01-25T10:38:59.067Z,66.70
2023-01-25T10:41:34.084Z,66.80
2023-01-25T10:44:20.355Z,67.00
2023-01-25T10:46:53.910Z,67.10
2023-01-25T10:49:30.155Z,67.00
2023-01-25T10:52:14.151Z,67.10
2023-01-25T10:54:44.107Z,67.10
2023-01-25T10:57:18.288Z,67.10
2023-01-25T10:59:49.263Z,66.80
2023-01-25T11:02:39.975Z,67.00
2023-01-25T11:05:33.581Z,66.80
2023-01-25T11:08:23.427Z,66.60
2023-01-25T11:10:53.663Z,66.80
2023-01-25T11:13:26.123Z,66.80
2023-01-25T11:15:57.957Z,66.80
2023-01-25T11:18:28.515Z,66.90
2023-01-25T11:21:08.503Z,66.90
2023-01-25T11:23:37.713Z,66.50
2023-01-25T11:26:16.487Z,66.30
2023-01-25T11:28:48.961Z,66.20
2023-01-25T11:31:21.289Z,66.00
2023-01-25T11:33:50.590Z,66.00
2023-01-25T11:36:28.148Z,66.00
2023-01-25T11:39:10.121Z,66.00
2023-01-25T11:41:50.058Z,66.20
2023-01-25T11:45:00.901Z,66.30
2023-01-25T11:47:45.773Z,66.40
2023-01-25T11:50:21.598Z,66.60
2023-01-25T11:53:04.418Z,66.30
2023-01-25T11:55:38.729Z,65.90
2023-01-25T11:58:33.635Z,65.90
2023-01-25T12:01:14.524Z,66.20
2023-01-25T12:04:11.242Z,66.20
2023-01-25T12:06:55.127Z,66.00
2023-01-25T12:09:39.226Z,65.90
2023-01-25T12:12:17.560Z,65.90
2023-01-25T12:15:09.931Z,66.00
2023-01-25T12:17:56.515Z,66.10
2023-01-25T12:20:41.338Z,66.00
2023-01-25T12:23:27.975Z,65.90
2023-01-25T12:26:13.884Z,66.10
2023-01-25T12:28:46.621Z,66.40
2023-01-25T12:31:20.960Z,66.40
2023-01-25T12:33:57.615Z,66.40
2023-01-25T12:36:31.461Z,66.30
2023-01-25T12:39:05.302Z,66.00
2023-01-25T12:41:41.492Z,65.80
2023-01-25T12:44:19.305Z,65.90
2023-01-25T12:46:56.279Z,65.90
2023-01-25T12:49:31.853Z,66.80
2023-01-25T12:52:06.369Z,66.00
2023-01-25T12:54:41.348Z,66.20
2023-01-25T12:57:21.252Z,66.00
2023-01-25T12:59:59.711Z,65.90
2023-01-25T13:02:51.703Z,65.80
2023-01-25T13:05:30.503Z,65.80
2023-01-25T13:08:07.816Z,65.90
2023-01-25T13:10:42.004Z,65.90
2023-01-25T13:13:23.950Z,65.90
2023-01-25T13:15:54.235Z,65.80
2023-01-25T13:18:40.667Z,65.70
2023-01-25T13:21:44.964Z,65.20
2023-01-25T13:24:20.051Z,65.00
2023-01-25T13:27:05.487Z,65.00
2023-01-25T13:29:58.837Z,65.60
2023-01-25T13:32:55.613Z,64.80
2023-01-25T13:35:29.130Z,64.90
2023-01-25T13:38:02.106Z,64.90
2023-01-25T13:40:36.489Z,64.90
2023-01-25T13:43:21.631Z,65.00
2023-01-25T13:46:08.301Z,65.10
2023-01-25T13:49:03.689Z,65.50
2023-01-25T13:51:37.723Z,65.60
2023-01-25T13:54:06.992Z,65.40
2023-01-25T13:56:37.518Z,65.30
2023-01-25T13:59:06.513Z,65.30
2023-01-25T14:01:37.411Z,65.50
2023-01-25T14:04:06.888Z,65.70
2023-01-25T14:06:40.533Z,65.50
2023-01-25T14:09:16.779Z,65.50
2023-01-25T14:11:49.253Z,65.50
2023-01-25T14:14:21.281Z,65.50
2023-01-25T14:17:15.914Z,65.60
2023-01-25T14:19:46.326Z,65.50
2023-01-25T14:22:22.557Z,65.50
2023-01-25T14:25:12.203Z,65.40
2023-01-25T14:27:46.709Z,65.10
2023-01-25T14:30:21.904Z,65.10
2023-01-25T14:32:55.531Z,65.10
2023-01-25T14:38:29.893Z,64.90
2023-01-25T14:41:03.277Z,65.10
2023-01-25T14:43:33.167Z,65.10
2023-01-25T14:46:02.367Z,65.40
2023-01-25T14:48:38.316Z,65.20
2023-01-25T14:51:13.813Z,65.20
2023-01-25T14:53:46.528Z,65.50
2023-01-25T14:56:27.396Z,65.70
2023-01-25T14:59:00.037Z,66.60
2023-01-25T15:01:36.145Z,65.70
2023-01-25T15:04:12.166Z,65.80
2023-01-25T15:06:47.344Z,65.40
2023-01-25T15:09:38.551Z,65.10
2023-01-25T15:12:29.402Z,65.00
2023-01-25T15:14:59.968Z,65.10
2023-01-25T15:18:13.968Z,65.00
2023-01-25T15:21:19.890Z,65.00
2023-01-25T15:24:01.537Z,64.60
2023-01-25T15:29:23.705Z,65.10
2023-01-25T15:31:53.104Z,65.00
2023-01-25T15:34:25.717Z,65.40
2023-01-25T15:36:56.201Z,65.50
2023-01-25T15:39:25.191Z,65.60
2023-01-25T15:41:54.016Z,66.40
2023-01-25T15:44:23.101Z,65.50
2023-01-25T15:46:53.525Z,65.50
2023-01-25T15:49:26.872Z,65.70
2023-01-25T15:51:57.649Z,65.80
2023-01-25T15:54:26.620Z,65.60
2023-01-25T15:56:58.450Z,65.70
2023-01-25T15:59:27.626Z,65.60
2023-01-25T16:01:56.792Z,65.20
2023-01-25T16:04:26.315Z,65.20
2023-01-25T16:06:57.391Z,65.10
2023-01-25T16:09:29.743Z,65.20
2023-01-25T16:12:00.745Z,65.20
2023-01-25T16:14:31.361Z,65.30
2023-01-25T16:17:04.017Z,65.30
2023-01-25T16:19:33.813Z,65.40
2023-01-25T16:22:04.682Z,65.50
2023-01-25T16:24:33.627Z,65.40
2023-01-25T16:27:02.625Z,65.20
2023-01-25T16:29:31.403Z,65.20
2023-01-25T16:32:00.853Z,65.50
2023-01-25T16:34:30.060Z,65.40
2023-01-25T16:36:59.840Z,65.30
2023-01-25T16:39:32.095Z,65.50
2023-01-25T16:42:01.233Z,65.50
2023-01-25T16:44:30.212Z,65.70
2023-01-25T16:46:59.259Z,65.60
2023-01-25T16:49:29.829Z,65.60
2023-01-25T16:51:58.999Z,65.60
2023-01-25T16:54:28.199Z,65.40
2023-01-25T16:56:59.922Z,65.40
2023-01-25T16:59:30.762Z,65.20
2023-01-25T17:01:59.790Z,65.10
2023-01-25T17:04:28.609Z,65.20
2023-01-25T17:06:58.778Z,65.20
2023-01-25T17:09:27.569Z,65.20
2023-01-25T17:11:58.572Z,65.30
2023-01-25T17:14:28.123Z,65.20
2023-01-25T17:16:57.200Z,65.00
2023-01-25T17:19:26.519Z,65.00
2023-01-25T17:21:57.506Z,65.00
2023-01-25T17:24:27.636Z,65.10
2023-01-25T17:26:59.382Z,65.40
2023-01-25T17:29:29.771Z,65.50
2023-01-25T17:31:59.174Z,65.50
2023-01-25T17:34:28.003Z,65.50
2023-01-25T17:36:56.938Z,65.50
2023-01-25T17:39:25.788Z,65.30
2023-01-25T17:41:54.800Z,65.20
2023-01-25T17:44:25.459Z,65.10
2023-01-25T17:46:54.348Z,65.10
2023-01-25T17:49:24.831Z,65.20
2023-01-25T17:51:53.884Z,65.40
2023-01-25T17:54:22.720Z,65.40
2023-01-25T17:56:51.567Z,65.50
2023-01-25T17:59:20.381Z,65.80
2023-01-25T18:01:50.974Z,65.70
2023-01-25T18:04:20.473Z,65.50
2023-01-25T18:06:49.581Z,65.40
2023-01-25T18:09:18.967Z,65.50
2023-01-25T18:11:47.879Z,65.60
2023-01-25T18:14:18.373Z,65.80
2023-01-25T18:16:47.214Z,65.80
2023-01-25T18:19:17.609Z,66.00
2023-01-25T18:21:46.805Z,66.30
2023-01-25T18:24:28.299Z,66.10
2023-01-25T18:27:02.391Z,65.70
2023-01-25T18:29:46.307Z,65.40
2023-01-25T18:32:15.407Z,65.20
2023-01-25T18:34:47.994Z,65.40
2023-01-25T18:37:21.116Z,65.60
2023-01-25T18:39:52.408Z,65.70
2023-01-25T18:42:24.017Z,65.60
2023-01-25T18:44:53.211Z,65.50
2023-01-25T18:47:23.937Z,65.40
2023-01-25T18:49:54.619Z,65.30
2023-01-25T18:52:25.209Z,65.10
2023-01-25T18:54:54.480Z,65.90
2023-01-25T18:57:23.594Z,65.00
2023-01-25T18:59:53.793Z,65.00
2023-01-25T19:02:26.332Z,65.00
2023-01-25T19:04:56.843Z,65.00
2023-01-25T19:07:25.819Z,65.30
2023-01-25T19:09:54.723Z,65.50
2023-01-25T19:12:23.978Z,65.40
2023-01-25T19:14:53.072Z,65.30
2023-01-25T19:17:22.282Z,65.20
2023-01-25T19:19:51.483Z,65.10
2023-01-25T19:22:21.931Z,65.00
2023-01-25T19:24:51.223Z,64.90
2023-01-25T19:27:20.095Z,64.70
2023-01-25T19:29:49.639Z,64.80
2023-01-25T19:32:18.725Z,65.00
2023-01-25T19:34:47.592Z,65.00
2023-01-25T19:37:16.594Z,65.20
2023-01-25T19:39:47.755Z,65.30
2023-01-25T19:42:18.624Z,65.40
2023-01-25T19:44:48.351Z,65.50
2023-01-25T19:47:17.456Z,65.50
2023-01-25T19:49:46.469Z,65.20
2023-01-25T19:52:15.401Z,65.10
2023-01-25T19:54:44.220Z,65.00
2023-01-25T19:57:14.603Z,64.90
2023-01-25T19:59:43.493Z,64.90
2023-01-25T20:02:13.278Z,65.00
2023-01-25T20:04:42.476Z,65.20
2023-01-25T20:07:11.441Z,65.40
2023-01-25T20:09:40.807Z,65.70
2023-01-25T20:12:10.616Z,65.40
2023-01-25T20:14:41.408Z,65.40
2023-01-25T20:17:10.367Z,65.30
2023-01-25T20:19:39.161Z,65.30
2023-01-25T20:22:08.512Z,65.50
2023-01-25T20:24:37.375Z,65.70
2023-01-25T20:27:07.502Z,65.70
2023-01-25T20:29:36.458Z,65.80
2023-01-25T20:32:07.480Z,65.90
2023-01-25T20:34:36.618Z,65.80
2023-01-25T20:37:05.802Z,65.60
2023-01-25T20:39:34.775Z,65.60
2023-01-25T20:42:03.729Z,65.50
2023-01-25T20:44:32.644Z,65.00
2023-01-25T20:47:01.448Z,65.00
2023-01-25T20:49:33.542Z,65.10
2023-01-25T20:52:02.368Z,65.20
2023-01-25T20:54:31.212Z,65.30
2023-01-25T20:57:00.158Z,65.50
2023-01-25T20:59:29.300Z,65.70
2023-01-25T21:01:58.410Z,66.00
2023-01-25T21:04:27.369Z,66.00
2023-01-25T21:06:57.666Z,65.90
2023-01-25T21:09:28.180Z,65.70
2023-01-25T21:11:57.062Z,65.80
2023-01-25T21:14:26.216Z,65.70
2023-01-25T21:16:55.258Z,65.50
2023-01-25T21:19:24.536Z,65.30
2023-01-25T21:21:53.371Z,65.30
2023-01-25T21:24:23.693Z,65.30
2023-01-25T21:26:52.649Z,65.20
2023-01-25T21:29:21.868Z,65.20
2023-01-25T21:31:53.019Z,65.40
2023-01-25T21:34:21.891Z,65.40
2023-01-25T21:36:51.924Z,65.30
2023-01-25T21:39:20.753Z,65.30
2023-01-25T21:41:51.260Z,65.20
2023-01-25T21:44:37.440Z,65.20
2023-01-25T21:47:29.019Z,65.40
2023-01-25T21:50:12.625Z,65.30
2023-01-25T21:52:41.705Z,65.30
2023-01-25T21:55:11.352Z,65.40
2023-01-25T21:57:46.948Z,66.20
2023-01-25T22:00:17.748Z,65.40
2023-01-25T22:02:46.816Z,65.40
2023-01-25T22:05:16.164Z,66.10
2023-01-25T22:07:45.274Z,65.20
2023-01-25T22:10:14.555Z,65.20
2023-01-25T22:12:45.421Z,65.30
2023-01-25T22:15:14.574Z,65.40
2023-01-25T22:17:43.345Z,65.30
2023-01-25T22:20:13.418Z,65.40
2023-01-25T22:22:42.263Z,65.50
2023-01-25T22:25:11.930Z,65.70
2023-01-25T22:27:51.225Z,65.70
2023-01-25T22:30:20.216Z,65.70
2023-01-25T22:32:49.041Z,65.70
2023-01-25T22:35:18.211Z,65.70
2023-01-25T22:37:47.195Z,65.60
2023-01-25T22:40:16.384Z,65.70
2023-01-25T22:42:46.705Z,65.70
2023-01-25T22:45:15.692Z,65.70
2023-01-25T22:47:45.085Z,65.90
2023-01-25T22:50:14.213Z,66.00
2023-01-25T22:52:43.269Z,66.00
2023-01-25T22:55:12.489Z,66.00
2023-01-25T22:57:41.428Z,65.90
2023-01-25T23:00:13.860Z,65.90
2023-01-25T23:02:42.813Z,65.90
2023-01-25T23:05:11.739Z,65.80
2023-01-25T23:07:40.661Z,65.80
2023-01-25T23:10:11.468Z,65.80
2023-01-25T23:12:40.536Z,65.80
2023-01-25T23:15:15.489Z,65.70
2023-01-25T23:18:02.764Z,65.80
2023-01-25T23:20:35.249Z,65.50
2023-01-25T23:23:04.611Z,65.70
2023-01-25T23:25:33.545Z,65.80
2023-01-25T23:28:02.394Z,65.90
2023-01-25T23:30:32.712Z,65.90
2023-01-25T23:33:01.490Z,65.80
2023-01-25T23:35:30.454Z,66.00
2023-01-25T23:37:59.386Z,66.30
2023-01-25T23:40:28.304Z,66.30
2023-01-25T23:42:57.591Z,66.30
2023-01-25T23:45:26.792Z,66.30
2023-01-25T23:47:57.417Z,66.20
2023-01-25T23:50:26.514Z,66.20
2023-01-25T23:52:55.579Z,66.20
2023-01-25T23:55:24.586Z,66.30
2023-01-25T23:57:54.600Z,66.20
